sensor_id;sensor_type;location;lat;lon;timestamp;P1;durP1;ratioP1;P2;durP2;ratioP2
18651;SDS011;9455;54.302;10.124;2023-04-10T00:00:41;39.07;;;14.90;;
18651;SDS011;9455;54.302;10.124;2023-04-10T00:03:09;46.57;;;15.07;;
18651;SDS011;9455;54.302;10.124;2023-04-10T00:05:36;42.83;;;14.60;;
18651;SDS011;9455;54.302;10.124;2023-04-10T00:08:04;43.43;;;14.53;;
18651;SDS011;9455;54.302;10.124;2023-04-10T00:10:31;36.40;;;12.77;;
18651;SDS011;9455;54.302;10.124;2023-04-10T00:12:57;42.73;;;15.10;;
18651;SDS011;9455;54.302;10.124;2023-04-10T00:15:25;43.20;;;14.60;;
18651;SDS011;9455;54.302;10.124;2023-04-10T00:17:52;43.67;;;13.43;;
18651;SDS011;9455;54.302;10.124;2023-04-10T00:20:19;36.33;;;14.27;;
18651;SDS011;9455;54.302;10.124;2023-04-10T00:22:46;38.87;;;12.77;;
18651;SDS011;9455;54.302;10.124;2023-04-10T00:25:14;40.97;;;15.20;;
18651;SDS011;9455;54.302;10.124;2023-04-10T00:27:41;45.03;;;13.90;;
18651;SDS011;9455;54.302;10.124;2023-04-10T00:30:08;39.80;;;13.87;;
18651;SDS011;9455;54.302;10.124;2023-04-10T00:32:35;33.13;;;13.13;;
18651;SDS011;9455;54.302;10.124;2023-04-10T00:35:01;44.63;;;14.97;;
18651;SDS011;9455;54.302;10.124;2023-04-10T00:37:28;33.03;;;13.90;;
18651;SDS011;9455;54.302;10.124;2023-04-10T00:39:55;36.83;;;13.97;;
18651;SDS011;9455;54.302;10.124;2023-04-10T00:42:23;38.00;;;13.63;;
18651;SDS011;9455;54.302;10.124;2023-04-10T00:44:49;34.53;;;13.23;;
18651;SDS011;9455;54.302;10.124;2023-04-10T00:47:16;39.03;;;13.60;;
18651;SDS011;9455;54.302;10.124;2023-04-10T00:49:43;42.50;;;13.40;;
18651;SDS011;9455;54.302;10.124;2023-04-10T00:52:10;41.17;;;13.47;;
18651;SDS011;9455;54.302;10.124;2023-04-10T00:54:37;37.57;;;13.87;;
18651;SDS011;9455;54.302;10.124;2023-04-10T00:57:04;42.00;;;13.77;;
18651;SDS011;9455;54.302;10.124;2023-04-10T00:59:32;38.47;;;13.63;;
18651;SDS011;9455;54.302;10.124;2023-04-10T01:02:00;39.47;;;12.30;;
18651;SDS011;9455;54.302;10.124;2023-04-10T01:04:27;34.47;;;12.83;;
18651;SDS011;9455;54.302;10.124;2023-04-10T01:06:57;40.23;;;13.27;;
18651;SDS011;9455;54.302;10.124;2023-04-10T01:09:31;38.33;;;13.80;;
18651;SDS011;9455;54.302;10.124;2023-04-10T01:12:06;38.10;;;13.23;;
18651;SDS011;9455;54.302;10.124;2023-04-10T01:14:45;42.97;;;14.17;;
18651;SDS011;9455;54.302;10.124;2023-04-10T01:17:20;40.87;;;13.07;;
18651;SDS011;9455;54.302;10.124;2023-04-10T01:19:57;37.53;;;13.73;;
18651;SDS011;9455;54.302;10.124;2023-04-10T01:22:35;41.40;;;13.00;;
18651;SDS011;9455;54.302;10.124;2023-04-10T01:25:18;38.90;;;13.47;;
18651;SDS011;9455;54.302;10.124;2023-04-10T01:28:06;42.63;;;13.17;;
18651;SDS011;9455;54.302;10.124;2023-04-10T01:30:48;36.40;;;13.43;;
18651;SDS011;9455;54.302;10.124;2023-04-10T01:33:18;46.37;;;13.20;;
18651;SDS011;9455;54.302;10.124;2023-04-10T01:35:46;37.60;;;13.20;;
18651;SDS011;9455;54.302;10.124;2023-04-10T01:38:17;31.03;;;12.53;;
18651;SDS011;9455;54.302;10.124;2023-04-10T01:40:47;42.73;;;13.90;;
18651;SDS011;9455;54.302;10.124;2023-04-10T01:43:18;35.33;;;13.07;;
18651;SDS011;9455;54.302;10.124;2023-04-10T01:45:49;41.40;;;13.80;;
18651;SDS011;9455;54.302;10.124;2023-04-10T01:48:17;37.47;;;12.60;;
18651;SDS011;9455;54.302;10.124;2023-04-10T01:50:44;46.77;;;15.43;;
18651;SDS011;9455;54.302;10.124;2023-04-10T01:53:12;33.67;;;13.47;;
18651;SDS011;9455;54.302;10.124;2023-04-10T01:55:40;35.23;;;12.10;;
18651;SDS011;9455;54.302;10.124;2023-04-10T01:58:07;36.77;;;12.17;;
18651;SDS011;9455;54.302;10.124;2023-04-10T02:00:36;33.97;;;12.93;;
18651;SDS011;9455;54.302;10.124;2023-04-10T02:03:05;38.20;;;12.20;;
18651;SDS011;9455;54.302;10.124;2023-04-10T02:05:47;33.17;;;11.93;;
18651;SDS011;9455;54.302;10.124;2023-04-10T02:08:23;35.23;;;11.97;;
18651;SDS011;9455;54.302;10.124;2023-04-10T02:10:56;33.60;;;12.70;;
18651;SDS011;9455;54.302;10.124;2023-04-10T02:13:27;35.13;;;12.67;;
18651;SDS011;9455;54.302;10.124;2023-04-10T02:15:56;40.27;;;13.37;;
18651;SDS011;9455;54.302;10.124;2023-04-10T02:18:27;36.70;;;14.00;;
18651;SDS011;9455;54.302;10.124;2023-04-10T02:20:55;37.03;;;12.87;;
18651;SDS011;9455;54.302;10.124;2023-04-10T02:23:21;44.33;;;13.63;;
18651;SDS011;9455;54.302;10.124;2023-04-10T02:25:49;32.43;;;12.40;;
18651;SDS011;9455;54.302;10.124;2023-04-10T02:28:15;33.03;;;12.20;;
18651;SDS011;9455;54.302;10.124;2023-04-10T02:30:42;33.83;;;12.33;;
18651;SDS011;9455;54.302;10.124;2023-04-10T02:33:09;31.07;;;12.97;;
18651;SDS011;9455;54.302;10.124;2023-04-10T02:35:37;33.70;;;12.57;;
18651;SDS011;9455;54.302;10.124;2023-04-10T02:38:03;39.83;;;13.63;;
18651;SDS011;9455;54.302;10.124;2023-04-10T02:40:30;36.63;;;13.33;;
18651;SDS011;9455;54.302;10.124;2023-04-10T02:42:56;33.17;;;12.43;;
18651;SDS011;9455;54.302;10.124;2023-04-10T02:45:23;32.60;;;11.60;;
18651;SDS011;9455;54.302;10.124;2023-04-10T02:47:50;28.53;;;11.87;;
18651;SDS011;9455;54.302;10.124;2023-04-10T02:50:16;41.87;;;12.97;;
18651;SDS011;9455;54.302;10.124;2023-04-10T02:52:45;39.17;;;13.10;;
18651;SDS011;9455;54.302;10.124;2023-04-10T02:55:11;36.60;;;12.40;;
18651;SDS011;9455;54.302;10.124;2023-04-10T02:57:38;35.67;;;12.27;;
18651;SDS011;9455;54.302;10.124;2023-04-10T03:00:05;35.73;;;12.70;;
18651;SDS011;9455;54.302;10.124;2023-04-10T03:02:33;32.30;;;12.53;;
18651;SDS011;9455;54.302;10.124;2023-04-10T03:04:59;31.10;;;11.53;;
18651;SDS011;9455;54.302;10.124;2023-04-10T03:07:27;38.03;;;13.30;;
18651;SDS011;9455;54.302;10.124;2023-04-10T03:09:55;31.53;;;12.37;;
18651;SDS011;9455;54.302;10.124;2023-04-10T03:12:21;33.97;;;13.00;;
18651;SDS011;9455;54.302;10.124;2023-04-10T03:14:48;33.80;;;12.23;;
18651;SDS011;9455;54.302;10.124;2023-04-10T03:17:15;31.97;;;12.00;;
18651;SDS011;9455;54.302;10.124;2023-04-10T03:19:41;34.77;;;12.93;;
18651;SDS011;9455;54.302;10.124;2023-04-10T03:22:08;32.63;;;13.50;;
18651;SDS011;9455;54.302;10.124;2023-04-10T03:24:35;38.90;;;13.03;;
18651;SDS011;9455;54.302;10.124;2023-04-10T03:27:05;34.73;;;12.77;;
18651;SDS011;9455;54.302;10.124;2023-04-10T03:29:32;34.60;;;12.93;;
18651;SDS011;9455;54.302;10.124;2023-04-10T03:31:58;38.03;;;12.67;;
18651;SDS011;9455;54.302;10.124;2023-04-10T03:34:25;29.97;;;12.50;;
18651;SDS011;9455;54.302;10.124;2023-04-10T03:36:51;38.97;;;12.63;;
18651;SDS011;9455;54.302;10.124;2023-04-10T03:39:18;31.37;;;11.43;;
18651;SDS011;9455;54.302;10.124;2023-04-10T03:41:45;31.77;;;13.13;;
18651;SDS011;9455;54.302;10.124;2023-04-10T03:44:13;36.20;;;13.83;;
18651;SDS011;9455;54.302;10.124;2023-04-10T03:46:40;31.67;;;12.57;;
18651;SDS011;9455;54.302;10.124;2023-04-10T03:49:06;27.47;;;12.13;;
18651;SDS011;9455;54.302;10.124;2023-04-10T03:51:33;36.63;;;12.87;;
18651;SDS011;9455;54.302;10.124;2023-04-10T03:53:59;39.67;;;13.40;;
18651;SDS011;9455;54.302;10.124;2023-04-10T03:56:26;37.60;;;13.07;;
18651;SDS011;9455;54.302;10.124;2023-04-10T03:58:52;32.50;;;12.63;;
18651;SDS011;9455;54.302;10.124;2023-04-10T04:01:21;27.63;;;12.23;;
18651;SDS011;9455;54.302;10.124;2023-04-10T04:03:48;32.80;;;12.40;;
18651;SDS011;9455;54.302;10.124;2023-04-10T04:06:14;37.17;;;12.93;;
18651;SDS011;9455;54.302;10.124;2023-04-10T04:08:41;38.20;;;13.10;;
18651;SDS011;9455;54.302;10.124;2023-04-10T04:11:07;33.07;;;12.40;;
18651;SDS011;9455;54.302;10.124;2023-04-10T04:13:34;34.40;;;13.50;;
18651;SDS011;9455;54.302;10.124;2023-04-10T04:16:01;31.00;;;12.53;;
18651;SDS011;9455;54.302;10.124;2023-04-10T04:18:29;30.33;;;12.63;;
18651;SDS011;9455;54.302;10.124;2023-04-10T04:20:55;30.60;;;12.30;;
18651;SDS011;9455;54.302;10.124;2023-04-10T04:23:22;33.87;;;12.07;;
18651;SDS011;9455;54.302;10.124;2023-04-10T04:25:48;33.07;;;12.93;;
18651;SDS011;9455;54.302;10.124;2023-04-10T04:28:16;34.40;;;12.80;;
18651;SDS011;9455;54.302;10.124;2023-04-10T04:30:43;35.37;;;13.00;;
18651;SDS011;9455;54.302;10.124;2023-04-10T04:33:10;34.63;;;11.90;;
18651;SDS011;9455;54.302;10.124;2023-04-10T04:35:38;32.27;;;12.03;;
18651;SDS011;9455;54.302;10.124;2023-04-10T04:38:05;33.40;;;12.80;;
18651;SDS011;9455;54.302;10.124;2023-04-10T04:40:31;31.00;;;12.37;;
18651;SDS011;9455;54.302;10.124;2023-04-10T04:42:58;32.30;;;12.70;;
18651;SDS011;9455;54.302;10.124;2023-04-10T04:45:24;35.83;;;13.13;;
18651;SDS011;9455;54.302;10.124;2023-04-10T04:47:51;28.97;;;12.60;;
18651;SDS011;9455;54.302;10.124;2023-04-10T04:50:18;33.57;;;12.53;;
18651;SDS011;9455;54.302;10.124;2023-04-10T04:52:46;36.83;;;13.13;;
18651;SDS011;9455;54.302;10.124;2023-04-10T04:55:12;30.50;;;12.60;;
18651;SDS011;9455;54.302;10.124;2023-04-10T04:57:39;29.63;;;11.70;;
18651;SDS011;9455;54.302;10.124;2023-04-10T05:00:06;41.50;;;13.00;;
18651;SDS011;9455;54.302;10.124;2023-04-10T05:02:33;29.93;;;12.93;;
18651;SDS011;9455;54.302;10.124;2023-04-10T05:05:00;38.83;;;12.93;;
18651;SDS011;9455;54.302;10.124;2023-04-10T05:07:27;28.87;;;11.50;;
18651;SDS011;9455;54.302;10.124;2023-04-10T05:09:55;34.77;;;12.83;;
18651;SDS011;9455;54.302;10.124;2023-04-10T05:12:21;29.13;;;11.40;;
18651;SDS011;9455;54.302;10.124;2023-04-10T05:14:48;48.03;;;13.33;;
18651;SDS011;9455;54.302;10.124;2023-04-10T05:17:14;28.80;;;11.33;;
18651;SDS011;9455;54.302;10.124;2023-04-10T05:19:41;33.63;;;12.90;;
18651;SDS011;9455;54.302;10.124;2023-04-10T05:22:08;33.83;;;12.97;;
18651;SDS011;9455;54.302;10.124;2023-04-10T05:24:35;29.90;;;11.70;;
18651;SDS011;9455;54.302;10.124;2023-04-10T05:27:03;35.80;;;12.10;;
18651;SDS011;9455;54.302;10.124;2023-04-10T05:29:29;31.63;;;12.77;;
18651;SDS011;9455;54.302;10.124;2023-04-10T05:31:56;34.20;;;12.80;;
18651;SDS011;9455;54.302;10.124;2023-04-10T05:34:23;29.47;;;12.30;;
18651;SDS011;9455;54.302;10.124;2023-04-10T05:36:49;29.40;;;12.07;;
18651;SDS011;9455;54.302;10.124;2023-04-10T05:39:16;33.37;;;12.70;;
18651;SDS011;9455;54.302;10.124;2023-04-10T05:41:43;29.47;;;12.57;;
18651;SDS011;9455;54.302;10.124;2023-04-10T05:44:11;31.13;;;12.93;;
18651;SDS011;9455;54.302;10.124;2023-04-10T05:46:37;27.87;;;11.47;;
18651;SDS011;9455;54.302;10.124;2023-04-10T05:49:04;32.73;;;12.27;;
18651;SDS011;9455;54.302;10.124;2023-04-10T05:51:30;29.47;;;11.70;;
18651;SDS011;9455;54.302;10.124;2023-04-10T05:53:57;30.87;;;12.80;;
18651;SDS011;9455;54.302;10.124;2023-04-10T05:56:23;30.83;;;13.13;;
18651;SDS011;9455;54.302;10.124;2023-04-10T05:58:50;33.93;;;12.90;;
18651;SDS011;9455;54.302;10.124;2023-04-10T06:01:18;30.40;;;12.97;;
18651;SDS011;9455;54.302;10.124;2023-04-10T06:03:45;31.70;;;12.57;;
18651;SDS011;9455;54.302;10.124;2023-04-10T06:06:11;38.00;;;12.27;;
18651;SDS011;9455;54.302;10.124;2023-04-10T06:08:38;38.17;;;12.87;;
18651;SDS011;9455;54.302;10.124;2023-04-10T06:11:05;29.27;;;11.53;;
18651;SDS011;9455;54.302;10.124;2023-04-10T06:13:31;31.93;;;11.43;;
18651;SDS011;9455;54.302;10.124;2023-04-10T06:15:58;31.93;;;11.13;;
18651;SDS011;9455;54.302;10.124;2023-04-10T06:18:26;31.47;;;11.60;;
18651;SDS011;9455;54.302;10.124;2023-04-10T06:20:53;30.43;;;13.03;;
18651;SDS011;9455;54.302;10.124;2023-04-10T06:23:22;27.47;;;11.87;;
18651;SDS011;9455;54.302;10.124;2023-04-10T06:25:48;33.00;;;13.37;;
18651;SDS011;9455;54.302;10.124;2023-04-10T06:28:15;30.97;;;11.70;;
18651;SDS011;9455;54.302;10.124;2023-04-10T06:30:42;34.87;;;13.90;;
18651;SDS011;9455;54.302;10.124;2023-04-10T06:33:08;25.20;;;12.57;;
18651;SDS011;9455;54.302;10.124;2023-04-10T06:35:36;33.20;;;12.20;;
18651;SDS011;9455;54.302;10.124;2023-04-10T06:38:03;32.87;;;12.87;;
18651;SDS011;9455;54.302;10.124;2023-04-10T06:40:29;32.80;;;12.77;;
18651;SDS011;9455;54.302;10.124;2023-04-10T06:42:58;31.77;;;12.80;;
18651;SDS011;9455;54.302;10.124;2023-04-10T06:45:24;34.27;;;12.80;;
18651;SDS011;9455;54.302;10.124;2023-04-10T06:47:51;32.67;;;12.77;;
18651;SDS011;9455;54.302;10.124;2023-04-10T06:50:18;28.97;;;12.10;;
18651;SDS011;9455;54.302;10.124;2023-04-10T06:52:46;33.77;;;12.27;;
18651;SDS011;9455;54.302;10.124;2023-04-10T06:55:13;33.07;;;12.83;;
18651;SDS011;9455;54.302;10.124;2023-04-10T06:57:40;34.67;;;13.20;;
18651;SDS011;9455;54.302;10.124;2023-04-10T07:00:07;30.93;;;11.70;;
18651;SDS011;9455;54.302;10.124;2023-04-10T07:02:35;32.37;;;12.07;;
18651;SDS011;9455;54.302;10.124;2023-04-10T07:05:01;31.93;;;13.70;;
18651;SDS011;9455;54.302;10.124;2023-04-10T07:07:28;34.87;;;13.67;;
18651;SDS011;9455;54.302;10.124;2023-04-10T07:09:56;36.30;;;13.07;;
18651;SDS011;9455;54.302;10.124;2023-04-10T07:12:23;31.90;;;13.00;;
18651;SDS011;9455;54.302;10.124;2023-04-10T07:14:50;32.37;;;12.70;;
18651;SDS011;9455;54.302;10.124;2023-04-10T07:17:17;31.37;;;12.93;;
18651;SDS011;9455;54.302;10.124;2023-04-10T07:19:44;28.03;;;12.13;;
18651;SDS011;9455;54.302;10.124;2023-04-10T07:22:10;35.70;;;13.40;;
18651;SDS011;9455;54.302;10.124;2023-04-10T07:24:37;30.27;;;13.37;;
18651;SDS011;9455;54.302;10.124;2023-04-10T07:27:05;30.27;;;13.20;;
18651;SDS011;9455;54.302;10.124;2023-04-10T07:29:31;31.20;;;13.23;;
18651;SDS011;9455;54.302;10.124;2023-04-10T07:31:58;29.10;;;12.67;;
18651;SDS011;9455;54.302;10.124;2023-04-10T07:34:25;28.37;;;13.27;;
18651;SDS011;9455;54.302;10.124;2023-04-10T07:36:51;32.03;;;14.23;;
18651;SDS011;9455;54.302;10.124;2023-04-10T07:39:18;27.97;;;12.97;;
18651;SDS011;9455;54.302;10.124;2023-04-10T07:41:45;26.93;;;12.50;;
18651;SDS011;9455;54.302;10.124;2023-04-10T07:44:13;37.97;;;13.03;;
18651;SDS011;9455;54.302;10.124;2023-04-10T07:46:39;31.77;;;13.20;;
18651;SDS011;9455;54.302;10.124;2023-04-10T07:49:06;33.57;;;12.93;;
18651;SDS011;9455;54.302;10.124;2023-04-10T07:51:33;32.13;;;13.03;;
18651;SDS011;9455;54.302;10.124;2023-04-10T07:54:01;33.47;;;13.03;;
18651;SDS011;9455;54.302;10.124;2023-04-10T07:56:28;32.43;;;13.40;;
18651;SDS011;9455;54.302;10.124;2023-04-10T07:58:57;30.47;;;13.90;;
18651;SDS011;9455;54.302;10.124;2023-04-10T08:01:26;31.80;;;12.77;;
18651;SDS011;9455;54.302;10.124;2023-04-10T08:03:53;27.53;;;12.10;;
18651;SDS011;9455;54.302;10.124;2023-04-10T08:06:20;26.80;;;11.83;;
18651;SDS011;9455;54.302;10.124;2023-04-10T08:08:47;31.27;;;12.73;;
18651;SDS011;9455;54.302;10.124;2023-04-10T08:11:21;31.73;;;11.97;;
18651;SDS011;9455;54.302;10.124;2023-04-10T08:13:49;28.20;;;12.83;;
18651;SDS011;9455;54.302;10.124;2023-04-10T08:16:17;32.50;;;12.83;;
18651;SDS011;9455;54.302;10.124;2023-04-10T08:18:45;28.17;;;12.53;;
18651;SDS011;9455;54.302;10.124;2023-04-10T08:21:12;26.33;;;12.53;;
18651;SDS011;9455;54.302;10.124;2023-04-10T08:23:39;27.93;;;12.13;;
18651;SDS011;9455;54.302;10.124;2023-04-10T08:26:05;35.67;;;12.90;;
18651;SDS011;9455;54.302;10.124;2023-04-10T08:28:32;27.23;;;12.13;;
18651;SDS011;9455;54.302;10.124;2023-04-10T08:31:00;24.07;;;11.60;;
18651;SDS011;9455;54.302;10.124;2023-04-10T08:33:27;27.67;;;12.37;;
18651;SDS011;9455;54.302;10.124;2023-04-10T08:35:55;27.67;;;12.23;;
18651;SDS011;9455;54.302;10.124;2023-04-10T08:38:21;28.07;;;11.27;;
18651;SDS011;9455;54.302;10.124;2023-04-10T08:40:49;24.00;;;11.87;;
18651;SDS011;9455;54.302;10.124;2023-04-10T08:43:15;25.33;;;11.17;;
18651;SDS011;9455;54.302;10.124;2023-04-10T08:45:42;29.27;;;11.97;;
18651;SDS011;9455;54.302;10.124;2023-04-10T08:48:11;25.13;;;11.10;;
18651;SDS011;9455;54.302;10.124;2023-04-10T08:50:40;29.77;;;12.43;;
18651;SDS011;9455;54.302;10.124;2023-04-10T08:53:10;31.97;;;12.90;;
18651;SDS011;9455;54.302;10.124;2023-04-10T08:55:38;25.57;;;11.70;;
18651;SDS011;9455;54.302;10.124;2023-04-10T08:58:06;29.50;;;12.47;;
18651;SDS011;9455;54.302;10.124;2023-04-10T09:00:33;25.90;;;11.13;;
18651;SDS011;9455;54.302;10.124;2023-04-10T09:03:02;26.80;;;11.40;;
18651;SDS011;9455;54.302;10.124;2023-04-10T09:05:32;23.10;;;10.53;;
18651;SDS011;9455;54.302;10.124;2023-04-10T09:08:00;30.37;;;12.37;;
18651;SDS011;9455;54.302;10.124;2023-04-10T09:10:29;22.07;;;9.70;;
18651;SDS011;9455;54.302;10.124;2023-04-10T09:12:55;29.00;;;11.23;;
18651;SDS011;9455;54.302;10.124;2023-04-10T09:15:22;19.13;;;9.67;;
18651;SDS011;9455;54.302;10.124;2023-04-10T09:17:55;21.00;;;10.50;;
18651;SDS011;9455;54.302;10.124;2023-04-10T09:20:24;24.40;;;11.13;;
18651;SDS011;9455;54.302;10.124;2023-04-10T09:22:52;20.90;;;9.63;;
18651;SDS011;9455;54.302;10.124;2023-04-10T09:25:30;23.73;;;9.40;;
18651;SDS011;9455;54.302;10.124;2023-04-10T09:27:58;20.87;;;10.13;;
18651;SDS011;9455;54.302;10.124;2023-04-10T09:30:31;17.77;;;8.83;;
18651;SDS011;9455;54.302;10.124;2023-04-10T09:32:59;23.17;;;9.90;;
18651;SDS011;9455;54.302;10.124;2023-04-10T09:35:33;21.07;;;9.33;;
18651;SDS011;9455;54.302;10.124;2023-04-10T09:38:11;20.87;;;10.37;;
18651;SDS011;9455;54.302;10.124;2023-04-10T09:40:41;22.57;;;9.40;;
18651;SDS011;9455;54.302;10.124;2023-04-10T09:43:15;21.87;;;7.93;;
18651;SDS011;9455;54.302;10.124;2023-04-10T09:45:46;17.53;;;8.17;;
18651;SDS011;9455;54.302;10.124;2023-04-10T09:48:14;19.73;;;9.13;;
18651;SDS011;9455;54.302;10.124;2023-04-10T09:50:40;17.23;;;8.17;;
18651;SDS011;9455;54.302;10.124;2023-04-10T09:53:07;19.27;;;9.50;;
18651;SDS011;9455;54.302;10.124;2023-04-10T09:55:34;20.50;;;8.73;;
18651;SDS011;9455;54.302;10.124;2023-04-10T09:58:03;17.43;;;7.97;;
18651;SDS011;9455;54.302;10.124;2023-04-10T10:00:31;13.73;;;7.13;;
18651;SDS011;9455;54.302;10.124;2023-04-10T10:03:02;13.13;;;8.07;;
18651;SDS011;9455;54.302;10.124;2023-04-10T10:05:33;21.43;;;9.93;;
18651;SDS011;9455;54.302;10.124;2023-04-10T10:08:01;16.17;;;9.03;;
18651;SDS011;9455;54.302;10.124;2023-04-10T10:10:29;18.10;;;8.83;;
18651;SDS011;9455;54.302;10.124;2023-04-10T10:12:56;16.67;;;8.40;;
18651;SDS011;9455;54.302;10.124;2023-04-10T10:15:27;16.63;;;7.63;;
18651;SDS011;9455;54.302;10.124;2023-04-10T10:18:02;21.80;;;8.90;;
18651;SDS011;9455;54.302;10.124;2023-04-10T10:20:32;15.03;;;7.03;;
18651;SDS011;9455;54.302;10.124;2023-04-10T10:23:01;16.43;;;7.83;;
18651;SDS011;9455;54.302;10.124;2023-04-10T10:25:29;18.93;;;9.20;;
18651;SDS011;9455;54.302;10.124;2023-04-10T10:27:56;14.00;;;7.77;;
18651;SDS011;9455;54.302;10.124;2023-04-10T10:30:31;15.43;;;7.50;;
18651;SDS011;9455;54.302;10.124;2023-04-10T10:32:58;12.07;;;6.97;;
18651;SDS011;9455;54.302;10.124;2023-04-10T10:35:27;11.33;;;6.90;;
18651;SDS011;9455;54.302;10.124;2023-04-10T10:37:56;18.87;;;8.10;;
18651;SDS011;9455;54.302;10.124;2023-04-10T10:40:26;15.03;;;7.23;;
18651;SDS011;9455;54.302;10.124;2023-04-10T10:42:56;16.83;;;7.60;;
18651;SDS011;9455;54.302;10.124;2023-04-10T10:45:33;18.50;;;8.67;;
18651;SDS011;9455;54.302;10.124;2023-04-10T10:48:05;16.20;;;8.43;;
18651;SDS011;9455;54.302;10.124;2023-04-10T10:53:29;12.07;;;7.27;;
18651;SDS011;9455;54.302;10.124;2023-04-10T10:55:56;18.30;;;7.60;;
18651;SDS011;9455;54.302;10.124;2023-04-10T10:58:44;13.73;;;6.87;;
18651;SDS011;9455;54.302;10.124;2023-04-10T11:01:13;12.30;;;6.73;;
18651;SDS011;9455;54.302;10.124;2023-04-10T11:03:40;9.83;;;6.30;;
18651;SDS011;9455;54.302;10.124;2023-04-10T11:06:09;16.70;;;7.70;;
18651;SDS011;9455;54.302;10.124;2023-04-10T11:08:37;12.77;;;6.93;;
18651;SDS011;9455;54.302;10.124;2023-04-10T11:11:13;12.43;;;6.97;;
18651;SDS011;9455;54.302;10.124;2023-04-10T11:13:42;13.43;;;7.70;;
18651;SDS011;9455;54.302;10.124;2023-04-10T11:16:40;13.10;;;7.63;;
18651;SDS011;9455;54.302;10.124;2023-04-10T11:19:08;10.67;;;6.57;;
18651;SDS011;9455;54.302;10.124;2023-04-10T11:21:40;12.80;;;6.40;;
18651;SDS011;9455;54.302;10.124;2023-04-10T11:24:27;10.93;;;6.27;;
18651;SDS011;9455;54.302;10.124;2023-04-10T11:26:54;12.67;;;6.93;;
18651;SDS011;9455;54.302;10.124;2023-04-10T11:29:33;12.83;;;7.13;;
18651;SDS011;9455;54.302;10.124;2023-04-10T11:32:02;11.93;;;7.30;;
18651;SDS011;9455;54.302;10.124;2023-04-10T11:34:30;9.67;;;5.80;;
18651;SDS011;9455;54.302;10.124;2023-04-10T11:36:58;8.50;;;5.40;;
18651;SDS011;9455;54.302;10.124;2023-04-10T11:39:27;11.77;;;6.33;;
18651;SDS011;9455;54.302;10.124;2023-04-10T11:41:55;11.97;;;6.87;;
18651;SDS011;9455;54.302;10.124;2023-04-10T11:44:26;12.90;;;6.63;;
18651;SDS011;9455;54.302;10.124;2023-04-10T11:46:54;16.70;;;7.13;;
18651;SDS011;9455;54.302;10.124;2023-04-10T11:49:24;11.27;;;6.33;;
18651;SDS011;9455;54.302;10.124;2023-04-10T11:51:52;10.90;;;5.60;;
18651;SDS011;9455;54.302;10.124;2023-04-10T11:54:20;9.43;;;5.67;;
18651;SDS011;9455;54.302;10.124;2023-04-10T11:56:55;11.93;;;7.50;;
18651;SDS011;9455;54.302;10.124;2023-04-10T11:59:24;8.53;;;5.87;;
18651;SDS011;9455;54.302;10.124;2023-04-10T12:01:51;12.80;;;6.10;;
18651;SDS011;9455;54.302;10.124;2023-04-10T12:04:20;11.33;;;6.33;;
18651;SDS011;9455;54.302;10.124;2023-04-10T12:06:50;8.90;;;6.00;;
18651;SDS011;9455;54.302;10.124;2023-04-10T12:09:18;10.87;;;6.03;;
18651;SDS011;9455;54.302;10.124;2023-04-10T12:11:49;8.23;;;5.00;;
18651;SDS011;9455;54.302;10.124;2023-04-10T12:14:17;6.37;;;4.60;;
18651;SDS011;9455;54.302;10.124;2023-04-10T12:16:44;9.83;;;5.60;;
18651;SDS011;9455;54.302;10.124;2023-04-10T12:19:12;9.70;;;5.93;;
18651;SDS011;9455;54.302;10.124;2023-04-10T12:21:39;6.40;;;4.87;;
18651;SDS011;9455;54.302;10.124;2023-04-10T12:24:09;7.07;;;4.63;;
18651;SDS011;9455;54.302;10.124;2023-04-10T12:26:36;10.40;;;5.20;;
18651;SDS011;9455;54.302;10.124;2023-04-10T12:29:03;7.07;;;4.30;;
18651;SDS011;9455;54.302;10.124;2023-04-10T12:31:32;7.53;;;5.03;;
18651;SDS011;9455;54.302;10.124;2023-04-10T12:34:00;10.37;;;5.13;;
18651;SDS011;9455;54.302;10.124;2023-04-10T12:36:30;6.77;;;4.67;;
18651;SDS011;9455;54.302;10.124;2023-04-10T12:38:59;9.27;;;4.93;;
18651;SDS011;9455;54.302;10.124;2023-04-10T12:41:29;7.00;;;5.00;;
18651;SDS011;9455;54.302;10.124;2023-04-10T12:44:07;8.17;;;4.40;;
18651;SDS011;9455;54.302;10.124;2023-04-10T12:46:34;6.90;;;4.77;;
18651;SDS011;9455;54.302;10.124;2023-04-10T12:49:07;11.53;;;4.80;;
18651;SDS011;9455;54.302;10.124;2023-04-10T12:51:40;7.20;;;4.73;;
18651;SDS011;9455;54.302;10.124;2023-04-10T12:54:11;7.90;;;4.77;;
18651;SDS011;9455;54.302;10.124;2023-04-10T12:56:53;6.00;;;4.77;;
18651;SDS011;9455;54.302;10.124;2023-04-10T12:59:20;7.13;;;4.73;;
18651;SDS011;9455;54.302;10.124;2023-04-10T13:01:46;7.93;;;4.30;;
18651;SDS011;9455;54.302;10.124;2023-04-10T13:04:13;7.40;;;4.40;;
18651;SDS011;9455;54.302;10.124;2023-04-10T13:06:41;6.93;;;4.37;;
18651;SDS011;9455;54.302;10.124;2023-04-10T13:09:08;8.13;;;4.80;;
18651;SDS011;9455;54.302;10.124;2023-04-10T13:11:34;7.77;;;4.90;;
18651;SDS011;9455;54.302;10.124;2023-04-10T13:14:02;7.03;;;4.37;;
18651;SDS011;9455;54.302;10.124;2023-04-10T13:16:29;4.40;;;3.77;;
18651;SDS011;9455;54.302;10.124;2023-04-10T13:18:56;6.00;;;4.63;;
18651;SDS011;9455;54.302;10.124;2023-04-10T13:21:22;6.13;;;4.30;;
18651;SDS011;9455;54.302;10.124;2023-04-10T13:23:52;5.77;;;4.27;;
18651;SDS011;9455;54.302;10.124;2023-04-10T13:26:19;8.83;;;4.57;;
18651;SDS011;9455;54.302;10.124;2023-04-10T13:28:45;7.67;;;4.20;;
18651;SDS011;9455;54.302;10.124;2023-04-10T13:31:13;9.00;;;3.67;;
18651;SDS011;9455;54.302;10.124;2023-04-10T13:33:42;5.03;;;3.80;;
18651;SDS011;9455;54.302;10.124;2023-04-10T13:36:11;4.50;;;4.10;;
18651;SDS011;9455;54.302;10.124;2023-04-10T13:38:37;4.77;;;4.00;;
18651;SDS011;9455;54.302;10.124;2023-04-10T13:41:04;3.57;;;3.27;;
18651;SDS011;9455;54.302;10.124;2023-04-10T13:43:31;4.90;;;3.60;;
18651;SDS011;9455;54.302;10.124;2023-04-10T13:45:57;5.53;;;4.00;;
18651;SDS011;9455;54.302;10.124;2023-04-10T13:48:25;9.40;;;4.53;;
18651;SDS011;9455;54.302;10.124;2023-04-10T13:50:52;4.47;;;4.07;;
18651;SDS011;9455;54.302;10.124;2023-04-10T13:53:19;4.07;;;3.13;;
18651;SDS011;9455;54.302;10.124;2023-04-10T13:55:45;4.83;;;3.53;;
18651;SDS011;9455;54.302;10.124;2023-04-10T13:58:14;4.93;;;3.90;;
18651;SDS011;9455;54.302;10.124;2023-04-10T14:00:41;5.30;;;3.13;;
18651;SDS011;9455;54.302;10.124;2023-04-10T14:03:08;4.40;;;4.00;;
18651;SDS011;9455;54.302;10.124;2023-04-10T14:05:37;5.07;;;3.83;;
18651;SDS011;9455;54.302;10.124;2023-04-10T14:08:04;8.10;;;4.13;;
18651;SDS011;9455;54.302;10.124;2023-04-10T14:10:31;6.40;;;3.73;;
18651;SDS011;9455;54.302;10.124;2023-04-10T14:12:57;5.90;;;3.97;;
18651;SDS011;9455;54.302;10.124;2023-04-10T14:15:24;4.57;;;3.93;;
18651;SDS011;9455;54.302;10.124;2023-04-10T14:17:51;6.60;;;4.07;;
18651;SDS011;9455;54.302;10.124;2023-04-10T14:20:17;5.10;;;3.93;;
18651;SDS011;9455;54.302;10.124;2023-04-10T14:22:45;8.23;;;4.93;;
18651;SDS011;9455;54.302;10.124;2023-04-10T14:25:12;5.27;;;3.83;;
18651;SDS011;9455;54.302;10.124;2023-04-10T14:27:39;6.17;;;4.50;;
18651;SDS011;9455;54.302;10.124;2023-04-10T14:30:07;5.40;;;4.00;;
18651;SDS011;9455;54.302;10.124;2023-04-10T14:32:34;12.40;;;3.73;;
18651;SDS011;9455;54.302;10.124;2023-04-10T14:35:00;5.20;;;3.77;;
18651;SDS011;9455;54.302;10.124;2023-04-10T14:37:27;4.23;;;3.80;;